Time;durP1;ratioP1;P1;durP2;ratioP2;P2;SDS_P1;SDS_P2;PMS_P1;PMS_P2;Temp;Humidity;BMP_temperature;BMP_pressure;BME280_temperature;BME280_humidity;BME280_pressure;Samples;Min_cycle;Max_cycle;Signal;HPM_P1;HPM_P2
2023/05/07 00:00:53;;;;;;;11.98;6.20;;;;;;;15.37;80.07;100390.16;5005818;28;20038;-18
2023/05/07 00:03:18;;;;;;;10.30;5.65;;;;;;;15.31;80.10;100378.47;5006020;28;20029;-17
2023/05/07 00:05:44;;;;;;;10.30;6.40;;;;;;;15.38;79.89;100381.81;5005745;28;20046;-17
2023/05/07 00:08:10;;;;;;;10.18;6.28;;;;;;;15.26;80.61;100384.59;5005769;28;20029;-18
2023/05/07 00:10:35;;;;;;;12.98;6.13;;;;;;;15.12;81.00;100382.44;5005378;28;20033;-18
2023/05/07 00:13:01;;;;;;;8.57;6.38;;;;;;;15.17;80.52;100380.66;5005664;28;20037;-18
2023/05/07 00:15:26;;;;;;;10.50;6.65;;;;;;;14.96;82.08;100384.03;5005462;28;20030;-17
2023/05/07 00:17:52;;;;;;;16.02;7.40;;;;;;;14.83;83.72;100372.53;5005100;28;20030;-17
2023/05/07 00:20:17;;;;;;;11.82;6.35;;;;;;;14.99;83.97;100381.66;5005272;28;20026;-17
2023/05/07 00:22:42;;;;;;;15.48;7.20;;;;;;;14.96;84.13;100378.66;5005535;28;20041;-18
2023/05/07 00:25:08;;;;;;;12.75;6.97;;;;;;;15.02;84.14;100366.97;5005312;28;20034;-18
2023/05/07 00:27:34;;;;;;;10.07;7.05;;;;;;;15.15;83.01;100369.34;5005404;28;20125;-18
2023/05/07 00:29:59;;;;;;;10.77;6.32;;;;;;;14.80;85.81;100370.31;5005243;28;20065;-17
2023/05/07 00:32:25;;;;;;;11.13;7.57;;;;;;;14.75;87.13;100370.22;5005065;28;20038;-18
2023/05/07 00:34:50;;;;;;;10.85;7.30;;;;;;;14.65;88.26;100362.78;5005319;28;20048;-22
2023/05/07 00:37:16;;;;;;;15.80;7.35;;;;;;;14.81;87.45;100371.13;5005398;28;20047;-18
2023/05/07 00:39:41;;;;;;;12.30;7.35;;;;;;;14.76;87.80;100363.78;5005184;28;20042;-19
2023/05/07 00:42:07;;;;;;;10.95;7.32;;;;;;;14.60;87.66;100370.72;5005234;28;20033;-18
2023/05/07 00:44:33;;;;;;;13.07;6.80;;;;;;;14.63;87.31;100364.88;5005121;28;20041;-18
2023/05/07 00:47:02;;;;;;;13.40;7.38;;;;;;;14.76;86.10;100374.53;5004946;28;20088;-18
2023/05/07 00:49:38;;;;;;;11.75;6.80;;;;;;;14.64;86.39;100363.81;5004926;28;20080;-22
2023/05/07 00:52:03;;;;;;;10.05;6.80;;;;;;;14.63;85.59;100364.09;5005055;28;20033;-17
2023/05/07 00:54:29;;;;;;;10.77;6.57;;;;;;;14.58;86.01;100372.03;5004888;28;20029;-19
2023/05/07 00:56:55;;;;;;;9.20;6.85;;;;;;;14.59;85.59;100363.72;5005038;28;20036;-19
2023/05/07 00:59:21;;;;;;;15.25;6.82;;;;;;;14.29;87.10;100358.53;5004849;28;20112;-22
2023/05/07 01:01:46;;;;;;;11.60;6.88;;;;;;;14.27;88.15;100366.78;5005242;28;20057;-18
2023/05/07 01:04:12;;;;;;;11.13;6.78;;;;;;;14.11;89.74;100372.88;5005335;28;20436;-17
2023/05/07 01:06:38;;;;;;;9.70;6.00;;;;;;;13.84;90.25;100359.16;5004706;28;20041;-18
2023/05/07 01:09:04;;;;;;;10.23;5.93;;;;;;;13.70;91.78;100363.09;5005126;28;20069;-19
2023/05/07 01:11:30;;;;;;;9.60;5.93;;;;;;;13.82;90.24;100370.09;5004828;28;20022;-18
2023/05/07 01:13:56;;;;;;;8.77;6.50;;;;;;;13.76;91.64;100365.66;5004851;28;20026;-17
2023/05/07 01:16:22;;;;;;;9.60;6.03;;;;;;;13.90;90.65;100358.22;5004987;28;20034;-18
2023/05/07 01:18:48;;;;;;;9.82;6.60;;;;;;;13.85;91.51;100368.81;5004988;28;20051;-17
2023/05/07 01:21:17;;;;;;;11.25;7.03;;;;;;;13.87;91.97;100374.75;5004551;28;20513;-21
2023/05/07 01:23:43;;;;;;;13.05;7.53;;;;;;;13.80;93.01;100371.38;5004849;28;20504;-19
2023/05/07 01:26:09;;;;;;;10.70;6.93;;;;;;;13.69;93.60;100367.66;5004961;28;20029;-18
2023/05/07 01:28:34;;;;;;;10.43;7.60;;;;;;;13.82;92.11;100367.41;5004869;28;20052;-18
2023/05/07 01:31:03;;;;;;;10.65;7.53;;;;;;;13.83;90.81;100354.81;5004913;28;20509;-17
2023/05/07 01:33:31;;;;;;;10.40;7.78;;;;;;;13.89;89.83;100369.16;5008433;28;20033;-18
2023/05/07 01:36:00;;;;;;;12.43;8.82;;;;;;;13.63;90.96;100374.75;5008306;28;20030;-19
2023/05/07 01:38:27;;;;;;;12.90;8.98;;;;;;;13.56;92.01;100371.34;5022900;28;20025;-19
2023/05/07 01:40:53;;;;;;;11.00;8.13;;;;;;;13.63;91.79;100372.06;5028177;28;20557;-18
2023/05/07 01:43:19;;;;;;;13.65;8.02;;;;;;;13.32;93.01;100370.50;5027928;28;20878;-17
2023/05/07 01:45:45;;;;;;;13.35;8.27;;;;;;;13.39;92.26;100370.41;5027772;28;20062;-17
2023/05/07 01:48:12;;;;;;;11.63;8.15;;;;;;;13.20;93.73;100359.72;5027725;28;20104;-19
2023/05/07 01:50:38;;;;;;;15.10;8.95;;;;;;;13.37;93.56;100361.78;5027955;28;20033;-18
2023/05/07 01:53:04;;;;;;;13.52;9.00;;;;;;;13.27;93.98;100357.75;5027758;28;20793;-17
2023/05/07 01:55:29;;;;;;;12.38;8.50;;;;;;;13.14;95.44;100355.28;5027737;28;20068;-17
2023/05/07 01:57:55;;;;;;;14.93;8.45;;;;;;;13.10;97.41;100356.78;5027721;28;20037;-17
2023/05/07 02:00:20;;;;;;;11.15;7.93;;;;;;;13.02;98.55;100359.78;5027794;28;20040;-17
2023/05/07 02:02:46;;;;;;;13.57;8.38;;;;;;;12.90;98.84;100335.66;5027687;28;20086;-17
2023/05/07 02:05:11;;;;;;;12.80;8.52;;;;;;;12.92;99.12;100338.91;5027339;28;20031;-18
2023/05/07 02:07:37;;;;;;;12.75;8.65;;;;;;;13.26;97.01;100340.06;5027847;28;20116;-18
2023/05/07 02:10:02;;;;;;;14.95;9.52;;;;;;;13.36;95.99;100344.06;5027185;28;20033;-16
2023/05/07 02:12:28;;;;;;;15.82;9.35;;;;;;;13.29;95.93;100337.97;5026206;28;20432;-18
2023/05/07 02:14:54;;;;;;;13.98;9.73;;;;;;;13.34;95.86;100330.06;5027321;28;20104;-17
2023/05/07 02:17:19;;;;;;;14.48;9.38;;;;;;;13.31;95.65;100339.41;5027700;28;20061;-20
2023/05/07 02:19:45;;;;;;;14.27;9.40;;;;;;;13.24;95.05;100339.47;5027144;28;20113;-18
2023/05/07 02:22:10;;;;;;;20.52;9.70;;;;;;;13.26;95.08;100350.78;5027176;28;20022;-18
2023/05/07 02:24:35;;;;;;;15.73;10.15;;;;;;;13.11;95.93;100339.66;5027213;28;20064;-18
2023/05/07 02:27:02;;;;;;;16.08;9.43;;;;;;;12.97;97.03;100335.53;5027081;28;20030;-17
2023/05/07 02:29:28;;;;;;;12.98;9.43;;;;;;;12.90;96.60;100346.34;5027083;28;20033;-18
2023/05/07 02:31:53;;;;;;;17.05;10.20;;;;;;;12.58;98.79;100337.72;5027653;28;20053;-18
2023/05/07 02:34:19;;;;;;;13.98;9.10;;;;;;;12.79;97.12;100329.22;5027463;28;20455;-18
2023/05/07 02:36:45;;;;;;;14.00;9.05;;;;;;;12.71;97.44;100342.91;5026943;28;20061;-18
2023/05/07 02:39:12;;;;;;;12.20;8.55;;;;;;;12.36;99.23;100340.03;5026911;28;20723;-17
2023/05/07 02:41:37;;;;;;;12.75;8.90;;;;;;;12.08;100.00;100336.03;5026986;28;20029;-16
2023/05/07 02:44:02;;;;;;;14.68;9.25;;;;;;;11.95;100.00;100338.84;5026505;28;20409;-17
2023/05/07 02:46:30;;;;;;;12.02;8.88;;;;;;;11.94;100.00;100343.38;5026940;28;20048;-17
2023/05/07 02:48:56;;;;;;;12.85;8.43;;;;;;;12.19;100.00;100339.81;5026653;28;20118;-18
2023/05/07 02:51:22;;;;;;;10.43;8.23;;;;;;;11.92;100.00;100340.09;5027036;28;20684;-17
2023/05/07 02:53:48;;;;;;;13.65;8.82;;;;;;;12.18;99.18;100333.66;5026653;28;20018;-19
2023/05/07 02:56:14;;;;;;;16.30;9.43;;;;;;;12.19;100.00;100335.28;5026794;28;20857;-20
2023/05/07 02:58:39;;;;;;;13.35;8.50;;;;;;;11.86;100.00;100335.63;5026588;28;20026;-20
2023/05/07 03:01:08;;;;;;;11.80;8.10;;;;;;;11.77;100.00;100339.59;5026698;28;20498;-18
2023/05/07 03:03:34;;;;;;;17.40;9.00;;;;;;;12.08;100.00;100328.03;5026672;28;20109;-18
2023/05/07 03:06:00;;;;;;;12.75;8.77;;;;;;;12.15;100.00;100333.28;5026326;28;20057;-18
2023/05/07 03:08:25;;;;;;;15.55;9.00;;;;;;;12.16;100.00;100327.72;5026358;28;20069;-19
2023/05/07 03:10:51;;;;;;;14.40;9.38;;;;;;;12.19;99.34;100329.94;5026246;28;20033;-17
2023/05/07 03:13:16;;;;;;;22.40;9.98;;;;;;;12.12;99.12;100317.72;5026543;28;20087;-18
2023/05/07 03:15:42;;;;;;;13.43;8.80;;;;;;;12.12;99.38;100328.41;5026260;28;20052;-19
2023/05/07 03:18:07;;;;;;;13.98;9.30;;;;;;;12.03;99.11;100317.16;5026418;28;20036;-18
2023/05/07 03:20:33;;;;;;;13.30;9.20;;;;;;;11.98;99.35;100325.03;5025941;28;20021;-18
2023/05/07 03:22:58;;;;;;;15.43;9.07;;;;;;;11.81;100.00;100306.88;5026368;28;20051;-18
2023/05/07 03:25:24;;;;;;;17.70;9.73;;;;;;;11.88;100.00;100320.16;5026229;28;20479;-22
2023/05/07 03:27:49;;;;;;;14.65;9.50;;;;;;;11.94;100.00;100319.31;5026174;28;20025;-17
2023/05/07 03:30:15;;;;;;;14.23;8.68;;;;;;;11.91;100.00;100319.78;5026371;28;20033;-18
2023/05/07 03:32:40;;;;;;;12.98;8.88;;;;;;;11.97;100.00;100318.06;5025843;28;20091;-17
2023/05/07 03:35:06;;;;;;;19.83;10.20;;;;;;;12.08;100.00;100320.00;5025879;28;20044;-19
2023/05/07 03:37:32;;;;;;;15.73;9.30;;;;;;;12.02;100.00;100315.53;5025867;28;20084;-18
2023/05/07 03:39:57;;;;;;;13.35;8.98;;;;;;;11.55;100.00;100318.63;5025836;28;20213;-18
2023/05/07 03:42:23;;;;;;;14.75;8.75;;;;;;;11.24;100.00;100306.97;5025863;28;20523;-19
2023/05/07 03:44:48;;;;;;;12.38;7.78;;;;;;;11.09;100.00;100327.81;5025661;28;20480;-19
2023/05/07 03:47:14;;;;;;;10.48;7.32;;;;;;;11.05;100.00;100326.59;5025652;28;20076;-17
2023/05/07 03:49:39;;;;;;;9.90;7.30;;;;;;;11.15;100.00;100328.81;5025506;28;20073;-20
2023/05/07 03:52:06;;;;;;;10.18;7.53;;;;;;;11.57;100.00;100321.91;5025708;28;20037;-17
2023/05/07 03:54:31;;;;;;;12.88;8.27;;;;;;;11.73;100.00;100341.06;5024858;28;20075;-17
2023/05/07 03:56:56;;;;;;;13.90;8.65;;;;;;;11.77;100.00;100337.75;5025652;28;20033;-18
2023/05/07 03:59:22;;;;;;;11.95;8.70;;;;;;;11.96;100.00;100341.28;5025475;28;20411;-18
2023/05/07 04:01:48;;;;;;;16.52;11.60;;;;;;;12.05;100.00;100331.97;5025340;28;20136;-17
2023/05/07 04:04:14;;;;;;;15.80;11.87;;;;;;;12.14;100.00;100337.00;5025142;28;20856;-18
2023/05/07 04:06:40;;;;;;;18.08;11.85;;;;;;;12.11;100.00;100340.13;5025722;28;20029;-18
2023/05/07 04:09:06;;;;;;;15.50;10.82;;;;;;;12.21;100.00;100332.41;5025203;28;20158;-18
2023/05/07 04:11:31;;;;;;;16.40;10.48;;;;;;;12.19;100.00;100335.28;5025262;28;20112;-18
2023/05/07 04:13:57;;;;;;;17.15;10.45;;;;;;;12.36;100.00;100342.72;5025411;28;20091;-19
2023/05/07 04:16:22;;;;;;;16.00;10.60;;;;;;;11.98;100.00;100341.91;5025200;28;20156;-18
2023/05/07 04:18:48;;;;;;;15.75;11.20;;;;;;;12.10;100.00;100352.69;5025228;28;20036;-19
2023/05/07 04:21:15;;;;;;;15.98;11.90;;;;;;;12.19;100.00;100351.31;5025117;28;20036;-17
2023/05/07 04:23:40;;;;;;;16.73;12.87;;;;;;;12.27;100.00;100359.06;5025119;28;20032;-18
2023/05/07 04:26:06;;;;;;;15.73;11.50;;;;;;;11.94;100.00;100356.75;5025043;28;20037;-18
2023/05/07 04:28:32;;;;;;;18.08;11.65;;;;;;;12.12;100.00;100365.84;5025112;28;20025;-19
2023/05/07 04:30:57;;;;;;;15.70;11.05;;;;;;;12.18;100.00;100365.75;5024795;28;20128;-20
2023/05/07 04:33:23;;;;;;;13.93;11.57;;;;;;;12.29;100.00;100363.38;5025106;28;20038;-18
2023/05/07 04:35:48;;;;;;;15.82;10.93;;;;;;;12.43;100.00;100368.34;5024981;28;20034;-17
2023/05/07 04:38:14;;;;;;;17.08;11.13;;;;;;;12.53;100.00;100372.38;5024879;28;20022;-22
2023/05/07 04:40:41;;;;;;;15.85;11.60;;;;;;;12.62;100.00;100376.34;5025033;28;20034;-17
2023/05/07 04:43:07;;;;;;;17.10;11.38;;;;;;;12.56;100.00;100356.66;5025049;28;20057;-17
2023/05/07 04:45:32;;;;;;;16.67;11.52;;;;;;;12.88;100.00;100366.38;5024539;28;20050;-18
2023/05/07 04:47:58;;;;;;;22.95;20.17;;;;;;;13.09;100.00;100365.84;5024783;28;20411;-18
2023/05/07 04:50:24;;;;;;;21.83;16.63;;;;;;;13.16;100.00;100371.13;5025114;28;20183;-18
2023/05/07 04:52:49;;;;;;;17.63;15.02;;;;;;;13.24;100.00;100368.94;5024620;28;20559;-19
2023/05/07 04:55:15;;;;;;;22.70;15.88;;;;;;;13.27;100.00;100373.81;5024579;28;20041;-18
2023/05/07 04:57:41;;;;;;;23.10;17.35;;;;;;;13.36;100.00;100373.53;5024890;28;20025;-18
2023/05/07 05:00:08;;;;;;;24.60;17.60;;;;;;;13.42;100.00;100372.59;5024528;28;20043;-18
2023/05/07 05:02:34;;;;;;;24.08;17.75;;;;;;;13.75;100.00;100385.50;5024803;28;20064;-17
2023/05/07 05:05:01;;;;;;;24.40;17.65;;;;;;;13.82;100.00;100364.72;5023249;28;20730;-18
2023/05/07 05:07:27;;;;;;;24.50;16.27;;;;;;;14.11;100.00;100382.81;5027450;28;20030;-20
2023/05/07 05:09:52;;;;;;;21.05;16.48;;;;;;;13.97;100.00;100374.16;5028891;28;20036;-18
2023/05/07 05:12:18;;;;;;;22.23;16.17;;;;;;;14.27;100.00;100388.25;5028727;28;20455;-18
2023/05/07 05:14:43;;;;;;;21.77;15.98;;;;;;;14.53;99.94;100386.13;5028456;28;20060;-18
2023/05/07 05:17:09;;;;;;;25.38;16.40;;;;;;;14.66;99.22;100393.13;5028428;28;20443;-18
2023/05/07 05:19:34;;;;;;;23.65;15.75;;;;;;;14.90;97.46;100385.81;5028441;28;20564;-18
2023/05/07 05:22:00;;;;;;;22.02;16.48;;;;;;;14.88;98.27;100377.19;5028232;28;20078;-18
2023/05/07 05:24:26;;;;;;;18.63;15.15;;;;;;;15.24;95.89;100402.81;5028516;28;20532;-20
2023/05/07 05:26:53;;;;;;;21.20;14.68;;;;;;;15.31;93.86;100402.66;5028168;28;20040;-18
2023/05/07 05:29:19;;;;;;;18.50;15.05;;;;;;;15.37;94.19;100400.88;5027873;28;20088;-18
2023/05/07 05:31:44;;;;;;;21.05;15.43;;;;;;;15.54;93.45;100407.09;5028170;28;20479;-18
2023/05/07 05:34:09;;;;;;;18.90;13.75;;;;;;;15.74;92.02;100411.22;5028128;28;20033;-18
2023/05/07 05:36:35;;;;;;;21.55;14.43;;;;;;;15.60;92.44;100395.34;5028129;28;20037;-18
2023/05/07 05:39:00;;;;;;;22.33;14.35;;;;;;;15.61;92.73;100407.75;5027957;28;20049;-18
2023/05/07 05:41:26;;;;;;;20.70;14.23;;;;;;;15.77;92.81;100389.19;5027943;28;20048;-19
2023/05/07 05:43:51;;;;;;;19.35;13.65;;;;;;;15.99;90.37;100408.91;5027692;28;20029;-18
2023/05/07 05:46:16;;;;;;;18.02;13.00;;;;;;;16.11;89.67;100400.75;5027921;28;20148;-18
2023/05/07 05:48:42;;;;;;;19.83;13.43;;;;;;;16.24;88.13;100400.41;5027588;28;20464;-18
2023/05/07 05:51:07;;;;;;;16.95;12.93;;;;;;;16.33;87.85;100402.66;5027779;28;20025;-18
2023/05/07 05:53:33;;;;;;;17.00;12.55;;;;;;;16.40;88.58;100409.47;5027512;28;20033;-18
2023/05/07 05:55:59;;;;;;;15.43;11.18;;;;;;;16.52;86.37;100416.63;5025696;28;20079;-18
2023/05/07 05:58:24;;;;;;;14.48;11.20;;;;;;;16.82;85.38;100410.84;5008338;28;20065;-18
2023/05/07 06:00:52;;;;;;;14.57;10.77;;;;;;;16.96;83.14;100412.09;5007651;28;20053;-19
2023/05/07 06:03:17;;;;;;;15.10;10.82;;;;;;;16.95;81.98;100391.59;5008147;28;21001;-18
2023/05/07 06:05:43;;;;;;;12.70;9.15;;;;;;;17.07;80.07;100413.00;5007652;28;20061;-18
2023/05/07 06:08:08;;;;;;;13.98;9.95;;;;;;;17.10;81.49;100412.50;5007748;28;20766;-18
2023/05/07 06:10:36;;;;;;;12.18;9.77;;;;;;;17.31;77.81;100386.56;5007600;28;20521;-19
2023/05/07 06:13:01;;;;;;;15.02;9.60;;;;;;;17.11;80.03;100408.72;5007527;28;20405;-18
2023/05/07 06:15:27;;;;;;;13.35;8.90;;;;;;;17.12;79.31;100410.38;5007928;28;20026;-21
2023/05/07 06:17:52;;;;;;;12.10;8.07;;;;;;;17.44;77.58;100412.28;5007426;28;20850;-18
2023/05/07 06:20:17;;;;;;;16.23;9.25;;;;;;;17.68;77.02;100404.66;5007499;28;20017;-18
2023/05/07 06:22:43;;;;;;;11.60;8.65;;;;;;;17.77;77.64;100410.38;5007479;28;20037;-17
2023/05/07 06:25:09;;;;;;;12.85;8.25;;;;;;;17.92;76.16;100413.25;5007768;28;20061;-17
2023/05/07 06:27:34;;;;;;;10.65;8.30;;;;;;;17.82;74.59;100407.75;5007530;28;20088;-19
2023/05/07 06:30:00;;;;;;;10.00;7.28;;;;;;;17.89;74.03;100416.44;5007493;28;20054;-19
2023/05/07 06:32:26;;;;;;;12.98;7.50;;;;;;;17.72;75.17;100400.38;5007795;28;20021;-18
2023/05/07 06:34:51;;;;;;;9.32;6.40;;;;;;;17.90;73.44;100404.59;5007472;28;20085;-18
2023/05/07 06:37:16;;;;;;;9.60;6.55;;;;;;;18.14;73.03;100405.00;5007218;28;20026;-18
2023/05/07 06:39:44;;;;;;;9.65;6.63;;;;;;;18.40;69.79;100414.06;5007403;28;20036;-18
2023/05/07 06:42:10;;;;;;;11.85;6.13;;;;;;;18.44;70.66;100407.06;5007352;28;20175;-19
2023/05/07 06:44:35;;;;;;;9.90;5.60;;;;;;;18.59;65.05;100410.91;5007128;28;20133;-18
2023/05/07 06:47:01;;;;;;;9.85;5.50;;;;;;;18.45;65.50;100416.81;5007028;28;20048;-18
2023/05/07 06:49:26;;;;;;;10.77;5.85;;;;;;;18.58;65.35;100403.91;5007319;28;20114;-18
2023/05/07 06:51:52;;;;;;;9.07;6.00;;;;;;;18.79;67.10;100405.59;5007247;28;20038;-19
2023/05/07 06:54:21;;;;;;;10.70;6.03;;;;;;;19.09;65.45;100405.97;5007087;28;20117;-18
2023/05/07 06:56:46;;;;;;;8.60;5.93;;;;;;;18.84;64.73;100408.34;5007112;28;20448;-18
2023/05/07 06:59:12;;;;;;;9.32;5.65;;;;;;;18.76;65.60;100395.31;5006884;28;20041;-18
2023/05/07 07:01:37;;;;;;;10.73;6.00;;;;;;;19.02;63.71;100404.34;5007115;28;20030;-18
2023/05/07 07:04:02;;;;;;;8.07;5.20;;;;;;;19.38;62.11;100417.09;5007094;28;20369;-18
2023/05/07 07:06:31;;;;;;;10.18;5.38;;;;;;;19.23;61.50;100416.00;5006975;28;20036;-17
2023/05/07 07:08:57;;;;;;;7.85;5.05;;;;;;;19.04;60.72;100413.00;5007173;28;20032;-19
2023/05/07 07:11:23;;;;;;;8.82;5.20;;;;;;;19.21;60.75;100418.16;5006391;28;20028;-17
2023/05/07 07:13:48;;;;;;;9.10;5.38;;;;;;;19.24;60.47;100417.63;5007070;28;20037;-18
2023/05/07 07:16:31;;;;;;;7.53;5.10;;;;;;;19.42;59.96;100412.78;5006662;28;20026;-18
2023/05/07 07:19:26;;;;;;;7.25;4.80;;;;;;;19.50;59.44;100425.78;5006659;28;20022;-20
2023/05/07 07:21:53;;;;;;;7.38;4.90;;;;;;;19.94;56.36;100419.03;5005987;28;20483;-18
2023/05/07 07:24:21;;;;;;;6.85;4.97;;;;;;;20.17;55.57;100423.06;5006820;28;20037;-18
2023/05/07 07:26:57;;;;;;;;;;;;;;;;;;;;;
2023/05/07 07:30:08;;;;;;;;;;;;;;;;;;;;;
2023/05/07 07:36:53;;;;;;;8.18;4.95;;;;;;;20.37;56.10;100427.59;5003318;28;20520;-18
2023/05/07 08:33:38;;;;;;;5.40;3.35;;;;;;;22.41;44.84;100430.91;5005585;28;20057;-18
2023/05/07 08:36:06;;;;;;;7.78;3.60;;;;;;;22.40;45.47;100423.81;5005095;28;20619;-18
2023/05/07 08:38:32;;;;;;;9.00;3.50;;;;;;;22.20;45.22;100424.81;5005293;28;20137;-20
2023/05/07 08:40:59;;;;;;;6.82;3.70;;;;;;;22.53;45.45;100432.38;5005015;28;20207;-18
2023/05/07 08:43:34;;;;;;;6.95;3.38;;;;;;;22.32;45.16;100429.91;5005572;28;20025;-18
2023/05/07 08:46:06;;;;;;;6.05;3.65;;;;;;;22.18;45.84;100431.66;5005252;28;20432;-18
2023/05/07 08:48:32;;;;;;;6.40;3.95;;;;;;;22.84;45.52;100422.75;5005201;28;20029;-19
2023/05/07 08:50:59;;;;;;;5.85;3.35;;;;;;;22.67;44.80;100423.22;5005230;28;20095;-18
2023/05/07 09:23:06;;;;;;;5.70;3.00;;;;;;;23.92;37.69;100412.97;5002413;28;20194;-18
2023/05/07 09:25:33;;;;;;;5.07;2.92;;;;;;;23.80;39.68;100399.84;5002290;28;20524;-18
2023/05/07 09:28:00;;;;;;;5.38;2.92;;;;;;;24.24;36.44;100403.13;5002136;28;20033;-18
2023/05/07 09:30:30;;;;;;;5.90;2.83;;;;;;;23.88;38.38;100401.06;5002109;28;20048;-18
2023/05/07 09:32:56;;;;;;;6.90;3.33;;;;;;;23.73;39.17;100388.50;5004662;28;20508;-19
2023/05/07 09:35:24;;;;;;;9.18;3.28;;;;;;;24.02;39.09;100392.91;5004790;28;20036;-19
2023/05/07 09:37:49;;;;;;;6.75;2.78;;;;;;;23.71;38.60;100388.00;5004968;28;20053;-17
2023/05/07 09:40:27;;;;;;;5.47;2.90;;;;;;;23.66;38.89;100388.88;5004740;28;20429;-19
2023/05/07 09:42:53;;;;;;;5.43;2.65;;;;;;;23.91;36.95;100386.84;5004531;28;20034;-18
2023/05/07 09:45:25;;;;;;;4.40;2.47;;;;;;;24.70;37.05;100385.84;5004615;28;20040;-18
2023/05/07 09:47:55;;;;;;;5.40;2.92;;;;;;;24.35;37.77;100385.44;5004637;28;20088;-18
2023/05/07 09:50:25;;;;;;;4.05;2.80;;;;;;;24.10;36.35;100388.69;5004720;28;20026;-19
2023/05/07 09:52:51;;;;;;;5.70;3.00;;;;;;;24.19;36.60;100378.69;5006143;28;20100;-18
2023/05/07 09:55:18;;;;;;;4.43;2.50;;;;;;;24.25;36.00;100383.75;5007996;28;20492;-18
2023/05/07 09:57:45;;;;;;;3.85;2.53;;;;;;;24.42;34.50;100379.63;5008132;28;20026;-19
2023/05/07 10:00:11;;;;;;;3.67;2.10;;;;;;;24.08;33.40;100372.63;5008168;28;20061;-19
2023/05/07 10:02:46;;;;;;;3.40;2.30;;;;;;;24.15;31.46;100389.41;5007990;28;20030;-18
2023/05/07 10:05:13;;;;;;;4.47;2.10;;;;;;;23.65;32.51;100376.38;5007666;28;20122;-17
2023/05/07 10:07:40;;;;;;;;;;;;;;;24.02;31.40;100384.75;5008645;28;20096;-19
2023/05/07 10:10:06;;;;;;;4.13;2.20;;;;;;;24.21;32.54;100387.38;5007586;28;19913;-18
2023/05/07 10:12:38;;;;;;;6.30;2.00;;;;;;;24.78;31.05;100365.22;5007841;28;20028;-22
2023/05/07 10:15:06;;;;;;;4.75;1.77;;;;;;;24.86;30.88;100376.22;5007730;28;20049;-18
2023/05/07 10:17:32;;;;;;;2.75;1.60;;;;;;;25.10;31.77;100368.88;5007661;28;20563;-21
2023/05/07 10:19:58;;;;;;;3.05;1.88;;;;;;;25.24;29.87;100375.13;5007810;28;20050;-18
2023/05/07 10:22:27;;;;;;;4.00;1.88;;;;;;;25.18;30.00;100365.41;5007693;28;20037;-18
2023/05/07 10:24:55;;;;;;;5.00;2.00;;;;;;;25.24;29.41;100370.47;5007480;28;20029;-18
2023/05/07 10:27:22;;;;;;;3.15;1.67;;;;;;;25.62;30.71;100375.53;5007574;28;20037;-18
2023/05/07 10:30:08;;;;;;;2.42;1.60;;;;;;;26.04;28.33;100376.09;5007452;28;20573;-18
2023/05/07 10:32:39;;;;;;;2.50;1.70;;;;;;;25.33;31.43;100362.34;5006412;28;20052;-20
2023/05/07 10:35:12;;;;;;;4.30;2.05;;;;;;;25.23;30.34;100366.13;5010648;28;20025;-18
2023/05/07 10:37:37;;;;;;;3.38;1.73;;;;;;;25.64;30.29;100361.56;5027097;28;20031;-19
2023/05/07 10:40:04;;;;;;;6.18;2.10;;;;;;;26.18;28.53;100359.59;5026964;28;20474;-22
2023/05/07 10:42:29;;;;;;;3.00;1.80;;;;;;;25.41;30.55;100352.59;5027135;28;20095;-19
2023/05/07 10:44:55;;;;;;;4.97;2.20;;;;;;;25.74;30.61;100344.09;5026653;28;20033;-18
2023/05/07 10:47:20;;;;;;;2.97;1.77;;;;;;;26.02;29.68;100336.53;5026874;28;20064;-19
2023/05/07 10:49:45;;;;;;;5.15;2.08;;;;;;;25.70;30.14;100340.38;5026898;28;20500;-18
2023/05/07 10:52:24;;;;;;;2.97;1.75;;;;;;;25.35;30.95;100332.00;5026308;28;20112;-19
2023/05/07 10:55:17;;;;;;;3.67;2.15;;;;;;;25.12;31.89;100340.16;5026554;28;20052;-19
2023/05/07 10:57:42;;;;;;;3.95;2.00;;;;;;;25.10;31.26;100326.03;5026730;28;20025;-18
2023/05/07 11:00:29;;;;;;;4.90;2.40;;;;;;;24.69;31.62;100331.63;5026777;28;20036;-20
2023/05/07 11:03:00;;;;;;;5.37;2.03;;;;;;;25.50;31.42;100334.34;5024825;28;20508;-18
2023/05/07 11:05:30;;;;;;;4.80;2.00;;;;;;;25.55;32.78;100334.22;5025988;28;20365;-18
2023/05/07 11:07:56;;;;;;;4.00;1.90;;;;;;;25.43;31.15;100336.72;5026362;28;20025;-19
2023/05/07 11:10:21;;;;;;;3.78;2.10;;;;;;;25.85;31.21;100329.06;5025725;28;20029;-19
2023/05/07 11:12:49;;;;;;;4.13;2.03;;;;;;;25.48;31.02;100325.66;5026091;28;20018;-18
2023/05/07 11:15:16;;;;;;;4.35;1.80;;;;;;;26.18;30.79;100334.19;5025691;28;20088;-19
2023/05/07 11:17:55;;;;;;;4.65;2.03;;;;;;;26.55;31.07;100330.06;5025561;28;20100;-18
2023/05/07 11:20:54;;;;;;;4.25;1.90;;;;;;;26.39;29.75;100334.38;5026146;28;20883;-18
2023/05/07 11:23:34;;;;;;;4.00;2.10;;;;;;;26.82;30.44;100329.00;5026166;28;20040;-20
2023/05/07 11:26:08;;;;;;;4.07;2.13;;;;;;;26.49;29.62;100333.28;5026284;28;20029;-19
2023/05/07 11:28:38;;;;;;;4.22;1.92;;;;;;;26.71;28.68;100333.19;5026316;28;20041;-18
2023/05/07 11:31:04;;;;;;;2.40;1.73;;;;;;;26.72;28.35;100317.56;5025835;28;20040;-19
2023/05/07 11:33:33;;;;;;;4.15;2.35;;;;;;;26.67;28.91;100315.81;5026421;28;20025;-19
2023/05/07 11:36:00;;;;;;;3.72;1.90;;;;;;;26.96;28.29;100322.56;5025868;28;20021;-18
2023/05/07 11:38:25;;;;;;;5.03;2.50;;;;;;;27.21;27.71;100312.69;5025940;28;20064;-18
2023/05/07 11:41:00;;;;;;;5.18;1.92;;;;;;;27.65;28.04;100311.50;5025469;28;20123;-20
2023/05/07 11:43:26;;;;;;;5.00;2.10;;;;;;;26.98;28.14;100298.41;5025795;28;20030;-19
2023/05/07 11:45:52;;;;;;;3.75;1.73;;;;;;;27.52;28.00;100311.69;5025778;28;20040;-19
2023/05/07 11:48:18;;;;;;;4.85;2.13;;;;;;;27.62;28.18;100303.94;5025374;28;20093;-18
2023/05/07 11:50:53;;;;;;;4.82;1.90;;;;;;;26.67;28.06;100304.84;5025741;28;20547;-20
2023/05/07 11:53:19;;;;;;;4.35;1.90;;;;;;;27.67;28.52;100300.22;5025818;28;20029;-18
2023/05/07 11:55:48;;;;;;;2.90;1.70;;;;;;;27.59;26.66;100306.53;5025733;28;20723;-19
2023/05/07 11:58:20;;;;;;;4.40;1.60;;;;;;;27.60;26.55;100291.69;5025389;28;20029;-19
2023/05/07 12:00:53;;;;;;;4.03;1.80;;;;;;;27.75;27.09;100301.31;5025763;28;20022;-18
2023/05/07 12:03:19;;;;;;;5.78;2.08;;;;;;;28.20;27.76;100296.09;5025670;28;20025;-18
2023/05/07 12:05:46;;;;;;;4.72;1.77;;;;;;;27.52;27.44;100298.78;5025210;28;20053;-18
2023/05/07 12:08:19;;;;;;;2.50;1.75;;;;;;;27.91;26.57;100301.56;5025486;28;20493;-19
2023/05/07 12:10:47;;;;;;;4.90;1.67;;;;;;;28.33;26.12;100302.47;5025306;28;20029;-19
2023/05/07 12:13:25;;;;;;;3.85;1.85;;;;;;;28.45;27.15;100299.78;5025075;28;20033;-18
2023/05/07 12:15:55;;;;;;;4.32;1.88;;;;;;;27.95;25.56;100286.91;5025023;28;20045;-19
2023/05/07 12:18:21;;;;;;;3.33;1.73;;;;;;;27.82;27.80;100288.69;5025152;28;20030;-18
2023/05/07 12:20:48;;;;;;;4.85;1.70;;;;;;;27.96;27.42;100284.94;5025026;28;20020;-21
2023/05/07 12:23:14;;;;;;;2.72;1.52;;;;;;;28.52;26.37;100279.28;5025179;28;20033;-19
2023/05/07 12:25:46;;;;;;;3.72;1.58;;;;;;;28.57;25.86;100285.38;5025249;28;20025;-19
2023/05/07 12:28:17;;;;;;;4.07;1.50;;;;;;;28.45;24.69;100283.34;5025039;28;20060;-18
2023/05/07 12:30:43;;;;;;;2.83;1.85;;;;;;;28.39;25.81;100284.69;5025176;28;20088;-19
2023/05/07 12:33:09;;;;;;;3.27;1.70;;;;;;;28.07;25.71;100277.94;5025207;28;20095;-18
2023/05/07 12:35:39;;;;;;;3.72;1.55;;;;;;;27.39;27.37;100266.94;5024952;28;20268;-19
2023/05/07 12:38:23;;;;;;;3.42;1.65;;;;;;;27.54;26.43;100249.16;5025068;28;20030;-20
2023/05/07 12:40:52;;;;;;;3.75;1.70;;;;;;;27.74;26.25;100248.44;5025065;28;20030;-18
2023/05/07 12:43:24;;;;;;;5.13;1.80;;;;;;;27.91;26.22;100264.03;5024959;28;20025;-19
2023/05/07 12:45:51;;;;;;;4.38;1.70;;;;;;;27.93;26.30;100269.16;5024875;28;20088;-18
2023/05/07 12:48:17;;;;;;;3.75;1.70;;;;;;;28.25;25.13;100267.69;5025058;28;20057;-18